Traverse City, Michigan
Current Conditions -  °F | °C
As of 7:53 PM on Friday 21 Nov 2014 (Local Time) from KTVC Reporting Station
Clear Clear  
Wind Chill: 19°   Ceiling: Unl
Heat Index: 27°   Visibility: 10mi
Dew Point: 17°   Wind: 7mph
Humidity: 66%   Direction: 170°S
Pressure: 30.2"   Gusts: NA
Location:  44.76°N, 85.61°W
Report Text: KTVC 220053Z 17006KT 10SM CLR M03/M08 A3020 RMK AO2 SLP236 T10281083
Loading
Personal Weather Stations






























Interactive Weather Map New forecast layout! Learn more

10-Day Weather Forecast

Advertisements
Track Severe Weather on mobile